< Typhoon 195121 1952 Season Typhoon 195202 >
Typhoon 195201 (CHARLOTTE)
General InformationTrack Information on Google Maps || Disaster Info.ResourceGoogle EarthGE AnimationAtom FeedGeoJSON
Detalied Best Track (Time Zone = UTC)
Year Month Day Hour Lat. Long. Pressure (hPa) Wind (kt) Class Image Chart
1952 6 9 06 14.9 117.9 992 0 2 -- Chart
1952 6 9 12 14.9 117.5 990 0 2 -- Chart
1952 6 9 18 15.0 117.0 988 0 9 -- Chart
1952 6 10 00 15.4 116.6 987 0 9 -- Chart
1952 6 10 06 16.3 116.2 985 0 9 -- Chart
1952 6 10 12 17.2 116.0 983 0 9 -- Chart
1952 6 10 18 18.3 115.6 981 0 9 -- Chart
1952 6 11 00 19.1 114.9 978 0 9 -- Chart
1952 6 11 06 19.4 114.5 971 0 9 -- Chart
1952 6 11 12 19.9 113.7 966 0 9 -- Chart
1952 6 11 18 20.2 113.2 962 0 9 -- Chart
1952 6 12 00 20.5 112.7 960 0 9 -- Chart
1952 6 12 06 20.7 112.1 961 0 9 -- Chart
1952 6 12 12 20.5 111.4 964 0 9 -- Chart
1952 6 12 18 20.3 110.9 968 0 9 -- Chart
1952 6 13 00 20.3 110.3 971 0 9 -- Chart
1952 6 13 06 20.6 110.0 974 0 9 -- Chart
1952 6 13 12 21.7 110.0 977 0 9 -- Chart
1952 6 13 18 22.2 111.0 980 0 9 -- Chart
1952 6 14 00 22.8 112.1 984 0 9 -- Chart
1952 6 14 06 23.0 113.4 986 0 9 -- Chart
1952 6 14 12 23.5 114.5 988 0 9 -- Chart
1952 6 14 18 23.9 115.6 990 0 9 -- Chart
1952 6 15 00 24.6 116.7 992 0 9 -- Chart
1952 6 15 06 25.3 117.7 995 0 9 -- Chart
1952 6 15 12 26.1 118.7 996 0 9 -- Chart
1952 6 15 18 26.9 119.6 998 0 9 -- Chart
1952 6 16 00 27.8 120.3 1000 0 6 -- Chart
1952 6 16 06 28.5 121.6 1001 0 6 -- Chart
1952 6 16 12 29.1 122.6 1003 0 6 -- Chart
1952 6 16 18 29.7 123.7 1004 0 6 -- Chart
1952 6 17 00 30.3 125.3 1006 0 6 -- Chart
1952 6 17 06 32.0 127.0 1007 0 6 -- Chart
1952 6 17 12 33.5 128.3 1008 0 6 -- Chart
1952 6 17 18 34.0 130.0 1008 0 6 -- Chart
Japan Meteorological Agency Best Track Data | Correction Date : 1989-06-01
< Typhoon 195121 1952 Season Typhoon 195202 >

Help